createdAt,value
2022-09-23T00:01:10.592Z,10.80
2022-09-23T00:03:41.397Z,10.90
2022-09-23T00:06:10.861Z,12.40
2022-09-23T00:08:38.800Z,10.80
2022-09-23T00:11:08.947Z,10.80
2022-09-23T00:13:36.950Z,10.80
2022-09-23T00:16:05.470Z,10.80
2022-09-23T00:18:33.235Z,10.80
2022-09-23T00:21:03.449Z,10.80
2022-09-23T00:23:31.066Z,10.80
2022-09-23T00:25:59.182Z,10.80
2022-09-23T00:28:28.098Z,10.70
2022-09-23T00:30:55.825Z,10.70
2022-09-23T00:33:23.407Z,10.70
2022-09-23T00:35:50.988Z,10.80
2022-09-23T00:38:19.424Z,10.70
2022-09-23T00:40:47.165Z,10.70
2022-09-23T00:43:15.128Z,10.70
2022-09-23T00:45:47.712Z,10.70
2022-09-23T00:48:17.438Z,10.70
2022-09-23T00:50:46.578Z,10.70
2022-09-23T00:53:16.764Z,10.70
2022-09-23T00:55:46.356Z,10.60
2022-09-23T00:58:15.538Z,10.60
2022-09-23T01:00:45.635Z,10.60
2022-09-23T01:03:13.953Z,10.60
2022-09-23T01:05:42.636Z,10.50
2022-09-23T01:08:11.355Z,10.40
2022-09-23T01:10:41.980Z,10.40
2022-09-23T01:13:15.947Z,10.30
2022-09-23T01:15:48.259Z,10.30
2022-09-23T01:18:21.118Z,10.20
2022-09-23T01:20:56.984Z,10.20
2022-09-23T01:23:42.746Z,10.10
2022-09-23T01:26:25.807Z,10.10
2022-09-23T01:29:02.317Z,10.00
2022-09-23T01:31:35.713Z,10.00
2022-09-23T01:34:07.091Z,9.90
2022-09-23T01:36:36.146Z,9.90
2022-09-23T01:39:07.925Z,9.80
2022-09-23T01:41:44.286Z,9.90
2022-09-23T01:44:14.129Z,9.90
2022-09-23T01:46:45.988Z,10.00
2022-09-23T01:49:16.881Z,10.00
2022-09-23T01:51:46.542Z,9.80
2022-09-23T01:54:16.819Z,9.80
2022-09-23T01:56:47.139Z,9.60
2022-09-23T01:59:16.268Z,9.80
2022-09-23T02:01:48.155Z,9.80
2022-09-23T02:04:17.417Z,9.80
2022-09-23T02:06:47.548Z,9.80
2022-09-23T02:09:16.488Z,9.70
2022-09-23T02:11:46.046Z,9.60
2022-09-23T02:14:16.425Z,9.60
2022-09-23T02:16:47.434Z,9.60
2022-09-23T02:19:16.256Z,9.50
2022-09-23T02:21:47.021Z,9.50
2022-09-23T02:24:15.760Z,9.50
2022-09-23T02:26:47.842Z,9.40
2022-09-23T02:29:20.493Z,9.50
2022-09-23T02:31:54.819Z,9.50
2022-09-23T02:34:29.623Z,9.40
2022-09-23T02:37:04.347Z,9.40
2022-09-23T02:39:39.236Z,9.40
2022-09-23T02:42:09.989Z,9.30
2022-09-23T02:44:37.733Z,9.30
2022-09-23T02:47:06.850Z,9.20
2022-09-23T02:49:36.521Z,9.20
2022-09-23T02:52:05.590Z,9.20
2022-09-23T02:54:34.384Z,9.20
2022-09-23T02:57:03.009Z,9.20
2022-09-23T02:59:31.297Z,9.20
2022-09-23T03:02:22.887Z,9.20
2022-09-23T03:04:54.874Z,9.10
2022-09-23T03:07:25.771Z,9.20
2022-09-23T03:09:55.323Z,9.10
2022-09-23T03:12:35.982Z,9.10
2022-09-23T03:15:09.649Z,9.10
2022-09-23T03:17:41.570Z,9.10
2022-09-23T03:20:13.531Z,9.00
2022-09-23T03:22:44.110Z,9.10
2022-09-23T03:25:12.457Z,9.00
2022-09-23T03:27:42.560Z,9.00
2022-09-23T03:30:11.076Z,8.90
2022-09-23T03:32:40.692Z,8.90
2022-09-23T03:35:08.831Z,8.90
2022-09-23T03:37:40.040Z,8.80
2022-09-23T03:40:09.644Z,8.80
2022-09-23T03:42:38.392Z,8.80
2022-09-23T03:45:10.313Z,8.80
2022-09-23T03:47:39.542Z,8.80
2022-09-23T03:50:08.999Z,8.80
2022-09-23T03:52:36.897Z,8.70
2022-09-23T03:55:04.958Z,8.70
2022-09-23T03:57:32.583Z,8.70
2022-09-23T04:00:00.168Z,8.70
2022-09-23T04:02:27.934Z,8.70
2022-09-23T04:04:56.038Z,8.70
2022-09-23T04:07:25.601Z,8.60
2022-09-23T04:09:53.442Z,8.60
2022-09-23T04:12:21.015Z,8.60
2022-09-23T04:14:48.686Z,8.50
2022-09-23T04:17:16.473Z,8.70
2022-09-23T04:19:45.007Z,8.60
2022-09-23T04:22:12.589Z,8.50
2022-09-23T04:24:41.481Z,8.50
2022-09-23T04:27:09.114Z,8.50
2022-09-23T04:29:36.728Z,8.60
2022-09-23T04:32:04.418Z,8.60
2022-09-23T04:34:31.989Z,8.60
2022-09-23T04:36:59.583Z,8.60
2022-09-23T04:39:27.172Z,8.40
2022-09-23T04:41:56.067Z,8.50
2022-09-23T04:44:24.477Z,8.50
2022-09-23T04:46:52.299Z,8.50
2022-09-23T04:49:20.045Z,8.50
2022-09-23T04:51:47.913Z,8.50
2022-09-23T04:54:15.534Z,8.40
2022-09-23T04:56:43.420Z,8.30
2022-09-23T04:59:12.314Z,8.30
2022-09-23T05:01:39.955Z,8.20
2022-09-23T05:04:08.592Z,8.30
2022-09-23T05:06:36.829Z,8.30
2022-09-23T05:09:05.874Z,8.40
2022-09-23T05:11:33.652Z,8.30
2022-09-23T05:14:01.285Z,8.30
2022-09-23T05:16:30.343Z,8.30
2022-09-23T05:18:58.086Z,8.30
2022-09-23T05:21:26.887Z,8.20
2022-09-23T05:23:55.347Z,8.30
2022-09-23T05:26:24.135Z,8.30
2022-09-23T05:28:51.864Z,8.30
2022-09-23T05:31:21.067Z,8.30
2022-09-23T05:33:51.847Z,8.30
2022-09-23T05:36:20.652Z,8.40
2022-09-23T05:38:49.205Z,8.40
2022-09-23T05:41:17.342Z,8.40
2022-09-23T05:43:45.318Z,8.50
2022-09-23T05:46:14.382Z,8.60
2022-09-23T05:48:42.426Z,8.50
2022-09-23T05:51:15.671Z,8.50
2022-09-23T05:53:45.491Z,8.60
2022-09-23T05:56:13.435Z,8.50
2022-09-23T05:58:41.493Z,8.60
2022-09-23T06:01:18.009Z,8.60
2022-09-23T06:03:46.711Z,8.70
2022-09-23T06:06:15.770Z,8.80
2022-09-23T06:08:43.353Z,8.80
2022-09-23T06:11:12.070Z,8.80
2022-09-23T06:13:39.911Z,8.80
2022-09-23T06:16:08.238Z,8.90
2022-09-23T06:18:36.185Z,8.90
2022-09-23T06:21:04.475Z,8.90
2022-09-23T06:23:34.077Z,8.90
2022-09-23T06:26:03.587Z,9.00
2022-09-23T06:28:32.370Z,9.10
2022-09-23T06:31:00.342Z,9.10
2022-09-23T06:33:35.670Z,9.20
2022-09-23T06:36:05.613Z,9.20
2022-09-23T06:38:35.155Z,9.20
2022-09-23T06:41:03.207Z,9.30
2022-09-23T06:43:31.219Z,9.30
2022-09-23T06:45:59.392Z,9.40
2022-09-23T06:48:27.984Z,9.40
2022-09-23T06:50:57.843Z,9.60
2022-09-23T06:53:25.497Z,9.60
2022-09-23T06:56:00.224Z,9.60
2022-09-23T06:58:27.810Z,9.70
2022-09-23T07:00:55.557Z,9.70
2022-09-23T07:03:23.140Z,9.80
2022-09-23T07:05:55.063Z,9.80
2022-09-23T07:08:22.791Z,9.90
2022-09-23T07:10:52.160Z,10.00
2022-09-23T07:13:21.095Z,10.10
2022-09-23T07:15:52.015Z,10.20
2022-09-23T07:18:20.039Z,10.30
2022-09-23T07:20:48.293Z,10.40
2022-09-23T07:23:17.553Z,10.50
2022-09-23T07:25:46.732Z,10.60
2022-09-23T07:28:14.544Z,10.70
2022-09-23T07:30:56.365Z,10.80
2022-09-23T07:33:33.327Z,10.90
2022-09-23T07:36:04.751Z,11.00
2022-09-23T07:38:32.341Z,11.10
2022-09-23T07:41:03.914Z,11.20
2022-09-23T07:43:32.850Z,11.30
2022-09-23T07:46:03.175Z,11.40
2022-09-23T07:48:34.298Z,11.50
2022-09-23T07:51:02.154Z,11.60
2022-09-23T07:53:31.799Z,11.70
2022-09-23T07:55:59.417Z,11.80
2022-09-23T07:58:27.095Z,11.90
2022-09-23T08:00:54.720Z,12.10
2022-09-23T08:03:23.783Z,12.20
2022-09-23T08:05:52.374Z,12.30
2022-09-23T08:08:20.202Z,12.40
2022-09-23T08:10:47.768Z,12.50
2022-09-23T08:13:15.335Z,12.50
2022-09-23T08:15:44.210Z,12.60
2022-09-23T08:18:11.845Z,12.70
2022-09-23T08:20:47.839Z,12.90
2022-09-23T08:23:16.728Z,13.00
2022-09-23T08:25:46.861Z,13.10
2022-09-23T08:28:16.067Z,13.30
2022-09-23T08:30:44.463Z,13.20
2022-09-23T08:33:12.350Z,13.40
2022-09-23T08:35:41.382Z,13.50
2022-09-23T08:38:08.960Z,13.50
2022-09-23T08:40:37.947Z,13.50
2022-09-23T08:43:07.317Z,13.60
2022-09-23T08:45:36.066Z,13.70
2022-09-23T08:48:10.781Z,13.80
2022-09-23T08:50:43.406Z,13.80
2022-09-23T08:53:15.041Z,13.90
2022-09-23T08:55:44.686Z,13.90
2022-09-23T08:58:25.673Z,14.00
2022-09-23T09:01:00.543Z,14.00
2022-09-23T09:03:33.152Z,14.00
2022-09-23T09:06:02.066Z,14.00
2022-09-23T09:08:32.466Z,14.30
2022-09-23T09:11:00.835Z,14.30
2022-09-23T09:13:31.735Z,14.50
2022-09-23T09:16:07.383Z,14.50
2022-09-23T09:18:35.703Z,14.60
2022-09-23T09:21:09.963Z,14.70
2022-09-23T09:23:41.466Z,14.80
2022-09-23T09:26:12.521Z,14.80
2022-09-23T09:28:43.343Z,14.90
2022-09-23T09:31:21.322Z,15.00
2022-09-23T09:34:04.539Z,15.20
2022-09-23T09:36:39.593Z,15.20
2022-09-23T09:39:07.630Z,15.10
2022-09-23T09:41:35.291Z,15.20
2022-09-23T09:44:03.625Z,15.40
2022-09-23T09:46:45.963Z,15.50
2022-09-23T09:49:23.197Z,15.50
2022-09-23T09:52:12.182Z,15.60
2022-09-23T09:54:39.766Z,15.80
2022-09-23T09:57:13.892Z,15.80
2022-09-23T09:59:44.121Z,15.90
2022-09-23T10:02:22.685Z,16.00
2022-09-23T10:04:56.240Z,16.10
2022-09-23T10:07:26.907Z,16.10
2022-09-23T10:09:58.334Z,16.20
2022-09-23T10:12:43.757Z,16.20
2022-09-23T10:15:26.636Z,16.40
2022-09-23T10:17:54.419Z,16.50
2022-09-23T10:20:22.002Z,16.50
2022-09-23T10:22:50.903Z,16.60
2022-09-23T10:25:21.129Z,16.90
2022-09-23T10:27:48.687Z,17.10
2022-09-23T10:30:22.138Z,17.10
2022-09-23T10:32:49.976Z,17.30
2022-09-23T10:35:18.551Z,17.30
2022-09-23T10:37:48.207Z,17.40
2022-09-23T10:40:36.788Z,17.50
2022-09-23T10:43:38.545Z,17.50
2022-09-23T10:46:26.165Z,17.70
2022-09-23T10:48:59.933Z,17.80
2022-09-23T10:51:32.197Z,17.80
2022-09-23T10:54:02.062Z,17.80
2022-09-23T10:56:35.461Z,17.80
2022-09-23T10:59:08.825Z,18.10
2022-09-23T11:01:40.341Z,18.20
2022-09-23T11:04:22.900Z,18.30
2022-09-23T11:06:59.659Z,18.20
2022-09-23T11:09:31.713Z,18.30
2022-09-23T11:12:09.335Z,18.40
2022-09-23T11:14:44.595Z,18.40
2022-09-23T11:17:29.886Z,18.50
2022-09-23T11:20:13.368Z,18.70
2022-09-23T11:22:49.444Z,18.60
2022-09-23T11:25:30.232Z,18.70
2022-09-23T11:28:10.725Z,18.80
2022-09-23T11:30:42.251Z,18.90
2022-09-23T11:33:26.255Z,19.00
2022-09-23T11:35:57.026Z,19.30
2022-09-23T11:38:27.605Z,19.40
2022-09-23T11:40:57.081Z,19.40
2022-09-23T11:43:28.600Z,19.30
2022-09-23T11:45:59.445Z,19.30
2022-09-23T11:48:30.976Z,19.30
2022-09-23T11:51:00.699Z,19.20
2022-09-23T11:53:32.431Z,19.30
2022-09-23T11:56:03.490Z,19.20
2022-09-23T11:58:34.269Z,19.20
2022-09-23T12:01:07.217Z,19.10
2022-09-23T12:03:44.396Z,19.00
2022-09-23T12:06:15.762Z,18.90
2022-09-23T12:08:43.538Z,18.90
2022-09-23T12:11:18.944Z,18.80
2022-09-23T12:13:50.758Z,18.90
2022-09-23T12:16:29.990Z,19.00
2022-09-23T12:19:03.307Z,19.10
2022-09-23T12:21:52.088Z,19.00
2022-09-23T12:24:26.051Z,19.00
2022-09-23T12:26:56.148Z,19.10
2022-09-23T12:29:25.802Z,19.10
2022-09-23T12:31:53.575Z,19.10
2022-09-23T12:34:23.221Z,19.30
2022-09-23T12:36:50.899Z,19.20
2022-09-23T12:39:23.597Z,19.10
2022-09-23T12:41:56.036Z,19.30
2022-09-23T12:44:36.864Z,19.30
2022-09-23T12:47:25.241Z,19.30
2022-09-23T12:49:53.240Z,19.30
2022-09-23T12:52:26.162Z,19.30
2022-09-23T12:54:57.084Z,19.20
2022-09-23T12:57:43.546Z,19.30
2022-09-23T13:00:22.560Z,19.30
2022-09-23T13:03:15.843Z,19.40
2022-09-23T13:06:02.549Z,19.40
2022-09-23T13:08:30.257Z,19.40
2022-09-23T13:10:58.998Z,19.40
2022-09-23T13:13:27.960Z,19.40
2022-09-23T13:15:56.885Z,19.50
2022-09-23T13:18:25.973Z,19.60
2022-09-23T13:20:54.867Z,19.60
2022-09-23T13:23:23.350Z,19.70
2022-09-23T13:25:52.132Z,19.60
2022-09-23T13:28:27.237Z,19.60
2022-09-23T13:30:55.510Z,19.60
2022-09-23T13:33:28.342Z,19.70
2022-09-23T13:35:58.560Z,19.80
2022-09-23T13:38:28.084Z,19.90
2022-09-23T13:40:57.472Z,19.90
2022-09-23T13:43:27.605Z,20.00
2022-09-23T13:45:55.298Z,19.90
2022-09-23T13:48:24.682Z,20.00
2022-09-23T13:50:54.597Z,20.00
2022-09-23T13:53:24.555Z,20.10
2022-09-23T13:56:00.250Z,20.10
2022-09-23T13:58:30.125Z,20.20
2022-09-23T14:00:58.051Z,20.30
2022-09-23T14:03:26.907Z,20.30
2022-09-23T14:05:56.432Z,20.30
2022-09-23T14:08:24.587Z,20.20
2022-09-23T14:10:53.582Z,20.30
2022-09-23T14:13:25.741Z,20.20
2022-09-23T14:15:55.086Z,20.20
2022-09-23T14:18:29.391Z,20.30
2022-09-23T14:20:58.293Z,20.10
2022-09-23T14:23:25.965Z,20.00
2022-09-23T14:25:54.420Z,20.00
2022-09-23T14:28:23.567Z,20.00
2022-09-23T14:30:52.254Z,20.10
2022-09-23T14:33:22.975Z,20.10
2022-09-23T14:35:52.313Z,20.10
2022-09-23T14:38:45.094Z,20.00
2022-09-23T14:41:17.345Z,20.00
2022-09-23T14:43:49.331Z,20.00
2022-09-23T14:46:18.389Z,20.00
2022-09-23T14:48:52.668Z,20.00
2022-09-23T14:51:20.874Z,20.00
2022-09-23T14:53:49.788Z,20.00
2022-09-23T14:56:19.274Z,19.90
2022-09-23T14:58:52.271Z,19.90
2022-09-23T15:01:41.193Z,19.90
2022-09-23T15:04:13.287Z,19.80
2022-09-23T15:06:42.736Z,19.80
2022-09-23T15:09:16.418Z,19.80
2022-09-23T15:11:44.033Z,19.80
2022-09-23T15:14:33.572Z,19.80
2022-09-23T15:17:00.235Z,19.80
2022-09-23T15:19:30.116Z,19.80
2022-09-23T15:21:57.998Z,19.80
2022-09-23T15:24:45.976Z,19.80
2022-09-23T15:27:26.876Z,19.80
2022-09-23T15:29:54.968Z,19.80
2022-09-23T15:32:22.572Z,19.80
2022-09-23T15:34:51.124Z,19.80
2022-09-23T15:37:18.723Z,19.80
2022-09-23T15:39:49.044Z,19.90
2022-09-23T15:42:18.203Z,19.80
2022-09-23T15:44:45.765Z,19.80
2022-09-23T15:47:18.348Z,19.80
2022-09-23T15:49:47.097Z,19.80
2022-09-23T15:52:16.372Z,19.70
2022-09-23T15:54:44.762Z,19.70
2022-09-23T15:57:13.689Z,19.60
2022-09-23T15:59:41.274Z,19.60
2022-09-23T16:02:16.836Z,19.60
2022-09-23T16:04:50.196Z,19.50
2022-09-23T16:07:19.659Z,19.50
2022-09-23T16:09:47.287Z,19.50
2022-09-23T16:12:16.424Z,19.40
2022-09-23T16:14:44.088Z,19.40
2022-09-23T16:17:12.989Z,19.10
2022-09-23T16:19:40.589Z,18.90
2022-09-23T16:22:08.295Z,18.70
2022-09-23T16:24:35.945Z,18.60
2022-09-23T16:27:05.713Z,18.70
2022-09-23T16:29:34.605Z,18.60
2022-09-23T16:32:03.048Z,18.50
2022-09-23T16:34:30.724Z,18.40
2022-09-23T16:36:58.346Z,18.30
2022-09-23T16:39:25.927Z,18.20
2022-09-23T16:41:53.515Z,18.00
2022-09-23T16:44:21.320Z,17.90
2022-09-23T16:46:51.053Z,17.90
2022-09-23T16:49:18.644Z,17.70
2022-09-23T16:51:46.228Z,17.70
2022-09-23T16:54:14.218Z,17.60
2022-09-23T16:56:44.258Z,17.70
2022-09-23T16:59:12.556Z,17.80
2022-09-23T17:01:57.801Z,17.60
2022-09-23T17:04:27.605Z,17.60
2022-09-23T17:06:56.030Z,17.40
2022-09-23T17:09:24.819Z,17.20
2022-09-23T17:11:53.583Z,17.00
2022-09-23T17:14:21.149Z,16.80
2022-09-23T17:16:48.793Z,16.80
2022-09-23T17:19:16.453Z,16.80
2022-09-23T17:21:45.360Z,17.00
2022-09-23T17:24:12.951Z,17.10
2022-09-23T17:26:40.521Z,16.60
2022-09-23T17:29:08.193Z,16.50
2022-09-23T17:31:36.001Z,16.50
2022-09-23T17:34:03.636Z,16.30
2022-09-23T17:36:31.335Z,16.20
2022-09-23T17:39:00.227Z,16.10
2022-09-23T17:41:28.147Z,16.10
2022-09-23T17:43:56.605Z,16.20
2022-09-23T17:46:24.306Z,16.10
2022-09-23T17:48:52.939Z,16.10
2022-09-23T17:51:20.654Z,16.10
2022-09-23T17:53:49.192Z,15.90
2022-09-23T17:56:18.824Z,16.00
2022-09-23T17:58:47.198Z,15.90
2022-09-23T18:01:15.762Z,15.70
2022-09-23T18:03:43.975Z,15.80
2022-09-23T18:06:12.744Z,15.70
2022-09-23T18:08:41.311Z,15.80
2022-09-23T18:11:12.923Z,15.70
2022-09-23T18:13:41.898Z,15.70
2022-09-23T18:16:09.669Z,15.50
2022-09-23T18:18:37.335Z,15.40
2022-09-23T18:21:05.526Z,15.50
2022-09-23T18:23:33.103Z,15.80
2022-09-23T18:26:00.895Z,15.90
2022-09-23T18:28:34.074Z,15.60
2022-09-23T18:31:03.877Z,15.50
2022-09-23T18:33:31.468Z,15.40
2022-09-23T18:35:59.856Z,15.20
2022-09-23T18:38:27.445Z,15.10
2022-09-23T18:40:56.872Z,15.10
2022-09-23T18:43:25.906Z,15.10
2022-09-23T18:45:57.590Z,15.00
2022-09-23T18:48:44.109Z,14.90
2022-09-23T18:51:12.136Z,14.90
2022-09-23T18:53:40.879Z,14.80
2022-09-23T18:56:09.777Z,14.80
2022-09-23T18:58:37.406Z,14.70
2022-09-23T19:01:06.332Z,14.70
2022-09-23T19:03:35.495Z,14.80
2022-09-23T19:06:04.194Z,14.80
2022-09-23T19:08:32.112Z,14.70
2022-09-23T19:11:01.152Z,14.70
2022-09-23T19:13:28.752Z,14.90
2022-09-23T19:15:56.382Z,14.80
2022-09-23T19:18:23.938Z,14.70
2022-09-23T19:20:53.636Z,14.70
2022-09-23T19:23:21.538Z,14.70
2022-09-23T19:25:49.271Z,14.90
2022-09-23T19:28:16.832Z,14.80
2022-09-23T19:30:44.393Z,14.60
2022-09-23T19:33:12.114Z,14.60
2022-09-23T19:35:47.380Z,14.60
2022-09-23T19:38:17.042Z,14.50
2022-09-23T19:40:49.609Z,14.40
2022-09-23T19:43:17.683Z,14.40
2022-09-23T19:45:45.355Z,14.40
2022-09-23T19:48:12.925Z,14.30
2022-09-23T19:50:41.518Z,14.30
2022-09-23T19:53:09.323Z,14.30
2022-09-23T19:55:38.385Z,14.40
2022-09-23T19:58:06.475Z,14.30
2022-09-23T20:00:34.249Z,14.40
2022-09-23T20:03:01.901Z,14.60
2022-09-23T20:05:29.462Z,14.80
2022-09-23T20:07:58.907Z,14.70
2022-09-23T20:10:26.775Z,14.40
2022-09-23T20:12:55.908Z,14.20
2022-09-23T20:15:23.875Z,14.10
2022-09-23T20:17:51.676Z,14.00
2022-09-23T20:20:19.274Z,14.00
2022-09-23T20:22:48.081Z,14.30
2022-09-23T20:25:15.647Z,14.50
2022-09-23T20:27:42.291Z,14.40
2022-09-23T20:30:11.939Z,14.20
2022-09-23T20:32:43.947Z,14.00
2022-09-23T20:35:12.397Z,14.00
2022-09-23T20:37:40.392Z,13.90
2022-09-23T20:40:09.043Z,14.00
2022-09-23T20:42:36.941Z,14.00
2022-09-23T20:45:05.048Z,13.80
2022-09-23T20:47:34.000Z,13.70
2022-09-23T20:50:01.582Z,13.70
2022-09-23T20:52:29.180Z,13.60
2022-09-23T20:54:56.798Z,13.60
2022-09-23T20:57:24.370Z,13.70
2022-09-23T20:59:51.983Z,14.00
2022-09-23T21:02:19.623Z,14.20
2022-09-23T21:04:48.512Z,14.20
2022-09-23T21:07:16.095Z,14.30
2022-09-23T21:09:43.668Z,14.20
2022-09-23T21:12:11.442Z,13.80
2022-09-23T21:14:39.369Z,13.60
2022-09-23T21:17:07.213Z,13.50
2022-09-23T21:19:37.958Z,13.60
2022-09-23T21:22:06.921Z,13.60
2022-09-23T21:25:08.461Z,13.70
2022-09-23T21:27:22.861Z,13.70
2022-09-23T21:29:50.443Z,14.00
2022-09-23T21:32:18.010Z,14.10
2022-09-23T21:34:45.988Z,14.00
2022-09-23T21:37:14.935Z,14.10
2022-09-23T21:40:02.524Z,13.90
2022-09-23T21:42:30.077Z,13.70
2022-09-23T21:44:57.674Z,13.70
2022-09-23T21:47:25.974Z,13.70
2022-09-23T21:49:53.563Z,13.60
2022-09-23T21:52:22.432Z,13.70
2022-09-23T21:54:50.026Z,13.60
2022-09-23T21:57:17.583Z,13.50
2022-09-23T21:59:45.196Z,13.50
2022-09-23T22:02:12.881Z,13.40
2022-09-23T22:04:40.569Z,13.50
2022-09-23T22:07:08.238Z,13.80
2022-09-23T22:09:37.125Z,13.50
2022-09-23T22:12:09.804Z,13.50
2022-09-23T22:14:38.862Z,13.50
2022-09-23T22:17:06.984Z,13.40
2022-09-23T22:19:36.713Z,13.50
2022-09-23T22:22:07.168Z,13.40
2022-09-23T22:24:35.023Z,13.60
2022-09-23T22:27:04.050Z,13.50
2022-09-23T22:29:49.279Z,13.40
2022-09-23T22:32:34.435Z,13.30
2022-09-23T22:35:02.003Z,13.20
2022-09-23T22:37:32.726Z,13.30
2022-09-23T22:40:00.371Z,13.10
2022-09-23T22:42:30.464Z,13.10
2022-09-23T22:44:58.298Z,13.20
2022-09-23T22:47:27.028Z,13.20
2022-09-23T22:49:55.294Z,13.20
2022-09-23T22:52:24.345Z,13.20
2022-09-23T22:54:52.190Z,13.20
2022-09-23T22:57:20.262Z,13.20
2022-09-23T22:59:49.190Z,13.20
2022-09-23T23:02:17.865Z,13.20
2022-09-23T23:04:46.004Z,13.20
2022-09-23T23:07:14.292Z,13.00
2022-09-23T23:09:41.925Z,13.00
2022-09-23T23:12:09.530Z,13.00
2022-09-23T23:14:37.950Z,12.90
2022-09-23T23:17:07.482Z,12.90
2022-09-23T23:19:35.803Z,12.90
2022-09-23T23:22:03.462Z,13.00
2022-09-23T23:24:31.071Z,13.00
2022-09-23T23:26:58.716Z,13.00
2022-09-23T23:29:26.282Z,13.00
2022-09-23T23:31:53.914Z,13.00
2022-09-23T23:34:23.198Z,12.90
2022-09-23T23:36:54.446Z,13.10
2022-09-23T23:39:23.453Z,13.00
2022-09-23T23:41:52.250Z,12.90
2022-09-23T23:44:19.827Z,13.00
2022-09-23T23:46:48.106Z,12.90
2022-09-23T23:49:15.716Z,13.10
2022-09-23T23:51:44.772Z,13.00
2022-09-23T23:54:12.857Z,12.90
2022-09-23T23:56:40.433Z,12.90
2022-09-23T23:59:08.003Z,12.90
